createdAt,value
2018-04-11T00:01:36.255Z,22.23
2018-04-11T00:04:02.138Z,22.17
2018-04-11T00:06:28.007Z,24.53
2018-04-11T00:08:53.904Z,21.37
2018-04-11T00:11:19.783Z,21.70
2018-04-11T00:13:45.655Z,21.40
2018-04-11T00:16:11.561Z,17.57
2018-04-11T00:18:37.430Z,18.43
2018-04-11T00:21:03.295Z,23.47
2018-04-11T00:23:29.202Z,17.33
2018-04-11T00:25:55.091Z,16.77
2018-04-11T00:28:20.950Z,19.40
2018-04-11T00:30:46.850Z,17.30
2018-04-11T00:33:12.711Z,16.00
2018-04-11T00:35:38.572Z,13.53
2018-04-11T00:38:04.543Z,19.07
2018-04-11T00:40:30.388Z,14.50
2018-04-11T00:42:56.265Z,17.03
2018-04-11T00:45:22.163Z,14.97
2018-04-11T00:47:48.068Z,15.00
2018-04-11T00:50:13.940Z,13.10
2018-04-11T00:52:39.858Z,14.47
2018-04-11T00:55:05.711Z,15.03
2018-04-11T00:57:31.596Z,13.57
2018-04-11T00:59:57.515Z,15.73
2018-04-11T01:02:23.374Z,14.47
2018-04-11T01:04:49.227Z,12.97
2018-04-11T01:07:15.131Z,11.60
2018-04-11T01:09:40.991Z,14.53
2018-04-11T01:12:06.867Z,13.53
2018-04-11T01:14:32.783Z,13.20
2018-04-11T01:16:58.659Z,13.53
2018-04-11T01:19:24.520Z,12.07
2018-04-11T01:21:50.428Z,12.97
2018-04-11T01:24:16.296Z,12.90
2018-04-11T01:26:42.159Z,14.30
2018-04-11T01:29:08.067Z,13.43
2018-04-11T01:31:33.935Z,13.70
2018-04-11T01:33:59.795Z,13.60
2018-04-11T01:36:25.709Z,12.97
2018-04-11T01:38:51.651Z,13.27
2018-04-11T01:41:17.508Z,13.27
2018-04-11T01:43:43.398Z,14.03
2018-04-11T01:46:09.271Z,13.17
2018-04-11T01:48:35.136Z,15.80
2018-04-11T01:51:01.139Z,12.03
2018-04-11T01:53:27.008Z,14.03
2018-04-11T01:55:52.867Z,12.67
2018-04-11T01:58:18.796Z,14.10
2018-04-11T02:00:44.672Z,14.90
2018-04-11T02:03:10.607Z,18.97
2018-04-11T02:05:36.533Z,15.00
2018-04-11T02:08:02.417Z,17.07
2018-04-11T02:10:28.291Z,14.87
2018-04-11T02:12:54.186Z,14.63
2018-04-11T02:15:20.159Z,15.33
2018-04-11T02:17:46.033Z,17.67
2018-04-11T02:20:11.944Z,17.80
2018-04-11T02:22:37.803Z,21.20
2018-04-11T02:25:03.679Z,19.00
2018-04-11T02:27:29.683Z,19.63
2018-04-11T02:29:55.535Z,22.33
2018-04-11T02:32:21.487Z,22.87
2018-04-11T02:34:47.404Z,22.57
2018-04-11T02:37:13.255Z,22.90
2018-04-11T02:39:39.223Z,25.33
2018-04-11T02:42:05.137Z,26.20
2018-04-11T02:44:31.055Z,25.93
2018-04-11T02:46:56.936Z,30.93
2018-04-11T02:49:22.864Z,26.70
2018-04-11T02:51:48.817Z,30.50
2018-04-11T02:54:14.688Z,29.63
2018-04-11T02:56:40.662Z,28.10
2018-04-11T02:59:06.552Z,31.73
2018-04-11T03:01:32.439Z,28.70
2018-04-11T03:03:58.465Z,30.47
2018-04-11T03:06:24.323Z,31.53
2018-04-11T03:08:50.238Z,27.33
2018-04-11T03:11:16.199Z,30.37
2018-04-11T03:13:42.225Z,31.13
2018-04-11T03:16:08.170Z,33.27
2018-04-11T03:18:34.096Z,30.90
2018-04-11T03:21:00.044Z,32.77
2018-04-11T03:23:25.903Z,32.77
2018-04-11T03:25:51.827Z,31.40
2018-04-11T03:28:17.762Z,30.07
2018-04-11T03:30:43.847Z,30.70
2018-04-11T03:33:09.829Z,32.67
2018-04-11T03:35:35.687Z,34.13
2018-04-11T03:38:01.543Z,30.40
2018-04-11T03:40:27.708Z,32.57
2018-04-11T03:42:53.582Z,35.20
2018-04-11T03:45:19.499Z,36.50
2018-04-11T03:47:45.411Z,34.53
2018-04-11T03:50:11.289Z,35.40
2018-04-11T03:52:37.261Z,31.80
2018-04-11T03:55:03.156Z,32.00
2018-04-11T03:57:29.077Z,30.53
2018-04-11T03:59:54.953Z,35.50
2018-04-11T04:02:20.872Z,36.00
2018-04-11T04:04:46.879Z,31.63
2018-04-11T04:07:12.768Z,34.40
2018-04-11T04:09:38.731Z,33.00
2018-04-11T04:12:04.600Z,36.70
2018-04-11T04:14:43.234Z,36.27
2018-04-11T04:17:21.509Z,32.53
2018-04-11T04:19:59.791Z,32.33
2018-04-11T04:22:25.668Z,35.23
2018-04-11T04:24:51.563Z,35.33
2018-04-11T04:27:17.580Z,33.73
2018-04-11T04:29:43.432Z,37.90
2018-04-11T04:32:09.356Z,37.37
2018-04-11T04:34:35.257Z,38.97
2018-04-11T04:37:01.140Z,38.30
2018-04-11T04:39:27.095Z,40.83
2018-04-11T04:41:53.038Z,41.87
2018-04-11T04:44:19.052Z,44.80
2018-04-11T04:46:44.935Z,41.50
2018-04-11T04:49:10.859Z,43.33
2018-04-11T04:51:36.885Z,41.30
2018-04-11T04:54:02.745Z,45.80
2018-04-11T04:56:28.754Z,45.73
2018-04-11T04:58:54.629Z,40.80
2018-04-11T05:01:20.516Z,41.93
2018-04-11T05:03:46.540Z,46.47
2018-04-11T05:06:12.423Z,47.73
2018-04-11T05:08:38.357Z,45.13
2018-04-11T05:11:04.280Z,46.07
2018-04-11T05:13:30.570Z,47.10
2018-04-11T05:15:56.560Z,51.90
2018-04-11T05:18:22.492Z,50.70
2018-04-11T05:20:48.395Z,53.73
2018-04-11T05:23:14.262Z,53.10
2018-04-11T05:25:40.175Z,55.50
2018-04-11T05:28:06.126Z,48.97
2018-04-11T05:30:31.986Z,53.00
2018-04-11T05:32:57.941Z,60.17
2018-04-11T05:35:23.799Z,58.43
2018-04-11T05:37:49.648Z,53.90
2018-04-11T05:40:15.811Z,56.07
2018-04-11T05:42:41.658Z,57.43
2018-04-11T05:45:07.567Z,63.67
2018-04-11T05:47:33.505Z,61.40
2018-04-11T05:49:59.351Z,57.83
2018-04-11T05:52:25.303Z,56.03
2018-04-11T05:54:51.199Z,51.47
2018-04-11T05:57:17.094Z,57.67
2018-04-11T05:59:42.951Z,56.23
2018-04-11T06:02:08.851Z,53.17
2018-04-11T06:04:34.807Z,59.43
2018-04-11T06:07:00.665Z,60.60
2018-04-11T06:09:26.607Z,54.37
2018-04-11T06:11:52.467Z,53.00
2018-04-11T06:14:18.337Z,46.40
2018-04-11T06:16:44.373Z,47.00
2018-04-11T06:19:10.228Z,48.40
2018-04-11T06:21:36.145Z,48.67
2018-04-11T06:24:02.055Z,48.83
2018-04-11T06:26:27.911Z,47.80
2018-04-11T06:28:53.867Z,52.53
2018-04-11T06:31:19.755Z,45.13
2018-04-11T06:33:45.697Z,45.77
2018-04-11T06:36:11.638Z,46.60
2018-04-11T06:38:37.555Z,49.30
2018-04-11T06:41:03.495Z,48.43
2018-04-11T06:43:29.371Z,39.57
2018-04-11T06:45:55.320Z,44.60
2018-04-11T06:48:21.214Z,44.87
2018-04-11T06:50:47.058Z,45.33
2018-04-11T06:53:13.054Z,44.67
2018-04-11T06:55:38.899Z,40.50
2018-04-11T06:58:04.831Z,38.77
2018-04-11T07:00:30.741Z,43.40
2018-04-11T07:02:56.587Z,39.07
2018-04-11T07:05:22.455Z,45.37
2018-04-11T07:07:48.363Z,36.27
2018-04-11T07:10:14.219Z,39.57
2018-04-11T07:12:40.079Z,36.37
2018-04-11T07:15:05.974Z,32.93
2018-04-11T07:17:31.820Z,38.67
2018-04-11T07:19:57.804Z,34.60
2018-04-11T07:22:23.696Z,33.20
2018-04-11T07:24:49.588Z,36.97
2018-04-11T07:27:15.451Z,32.60
2018-04-11T07:29:41.354Z,31.27
2018-04-11T07:32:07.216Z,36.03
2018-04-11T07:34:33.071Z,33.43
2018-04-11T07:36:58.964Z,31.00
2018-04-11T07:39:24.825Z,30.70
2018-04-11T07:41:50.670Z,34.13
2018-04-11T07:44:16.596Z,34.90
2018-04-11T07:46:42.460Z,29.17
2018-04-11T07:49:08.322Z,27.13
2018-04-11T07:51:34.220Z,28.20
2018-04-11T07:54:00.140Z,28.60
2018-04-11T07:56:25.991Z,28.43
2018-04-11T07:58:51.902Z,34.30
2018-04-11T08:01:17.772Z,29.33
2018-04-11T08:03:43.632Z,27.37
2018-04-11T08:06:09.547Z,25.63
2018-04-11T08:08:35.415Z,26.40
2018-04-11T08:11:01.270Z,25.20
2018-04-11T08:13:27.195Z,29.27
2018-04-11T08:15:53.135Z,25.37
2018-04-11T08:18:19.011Z,25.53
2018-04-11T08:20:44.935Z,25.10
2018-04-11T08:23:10.817Z,28.73
2018-04-11T08:25:36.672Z,26.93
2018-04-11T08:28:02.578Z,25.47
2018-04-11T08:30:28.438Z,25.10
2018-04-11T08:32:54.312Z,24.10
2018-04-11T08:35:20.214Z,25.03
2018-04-11T08:37:46.079Z,23.90
2018-04-11T08:40:11.960Z,23.97
2018-04-11T08:42:37.889Z,27.43
2018-04-11T08:45:03.759Z,24.17
2018-04-11T08:47:29.629Z,24.50
2018-04-11T08:49:55.543Z,24.40
2018-04-11T08:52:21.403Z,22.53
2018-04-11T08:54:47.320Z,25.70
2018-04-11T08:57:13.231Z,23.53
2018-04-11T08:59:39.082Z,24.10
2018-04-11T09:02:04.952Z,26.63
2018-04-11T09:04:30.867Z,21.53
2018-04-11T09:06:56.739Z,25.70
2018-04-11T09:09:22.612Z,23.43
2018-04-11T09:11:48.515Z,24.13
2018-04-11T09:14:14.395Z,22.80
2018-04-11T09:16:40.256Z,22.63
2018-04-11T09:19:06.175Z,22.73
2018-04-11T09:21:32.051Z,22.53
2018-04-11T09:23:57.924Z,21.73
2018-04-11T09:26:23.857Z,22.57
2018-04-11T09:28:50.211Z,23.20
2018-04-11T09:31:16.080Z,23.40
2018-04-11T09:33:41.988Z,22.83
2018-04-11T09:36:07.851Z,23.10
2018-04-11T09:38:33.721Z,22.47
2018-04-11T09:40:59.624Z,27.83
2018-04-11T09:43:25.493Z,22.50
2018-04-11T09:45:51.371Z,24.27
2018-04-11T09:48:17.307Z,22.63
2018-04-11T09:50:43.176Z,22.63
2018-04-11T09:53:09.039Z,22.77
2018-04-11T09:55:35.016Z,23.07
2018-04-11T09:58:00.881Z,21.83
2018-04-11T10:00:26.783Z,23.10
2018-04-11T10:02:58.847Z,21.77
2018-04-11T10:05:24.710Z,21.40
2018-04-11T10:07:50.581Z,22.30
2018-04-11T10:10:16.516Z,20.90
2018-04-11T10:12:42.388Z,23.80
2018-04-11T10:15:08.259Z,22.03
2018-04-11T10:17:34.171Z,20.40
2018-04-11T10:20:00.048Z,22.07
2018-04-11T10:22:25.948Z,22.03
2018-04-11T10:24:51.898Z,21.03
2018-04-11T10:27:17.768Z,21.50
2018-04-11T10:29:43.819Z,22.37
2018-04-11T10:32:09.721Z,20.23
2018-04-11T10:34:35.599Z,20.93
2018-04-11T10:37:01.476Z,21.17
2018-04-11T10:39:27.381Z,20.70
2018-04-11T10:41:53.238Z,21.90
2018-04-11T10:44:19.133Z,22.70
2018-04-11T10:46:45.085Z,23.17
2018-04-11T10:49:10.956Z,23.60
2018-04-11T10:51:36.823Z,22.57
2018-04-11T10:54:02.748Z,21.83
2018-04-11T10:56:28.692Z,22.30
2018-04-11T10:58:54.561Z,24.60
2018-04-11T11:01:20.567Z,21.97
2018-04-11T11:03:46.437Z,22.07
2018-04-11T11:06:12.321Z,22.90
2018-04-11T11:08:38.215Z,22.90
2018-04-11T11:11:04.088Z,23.33
2018-04-11T11:13:29.977Z,22.20
2018-04-11T11:15:55.897Z,21.77
2018-04-11T11:18:21.775Z,22.10
2018-04-11T11:20:54.589Z,22.40
2018-04-11T11:23:20.508Z,20.20
2018-04-11T11:25:46.410Z,21.87
2018-04-11T11:28:12.279Z,21.10
2018-04-11T11:30:38.204Z,21.63
2018-04-11T11:33:04.075Z,22.70
2018-04-11T11:35:29.971Z,22.00
2018-04-11T11:37:55.885Z,22.97
2018-04-11T11:40:21.743Z,21.70
2018-04-11T11:42:47.619Z,20.27
2018-04-11T11:45:13.546Z,21.50
2018-04-11T11:47:39.425Z,21.40
2018-04-11T11:50:05.338Z,20.60
2018-04-11T11:52:31.244Z,24.63
2018-04-11T11:54:57.124Z,22.20
2018-04-11T11:57:23.079Z,22.40
2018-04-11T11:59:48.997Z,23.27
2018-04-11T12:02:14.903Z,22.73
2018-04-11T12:04:40.776Z,23.70
2018-04-11T12:07:06.693Z,25.30
2018-04-11T12:09:32.656Z,23.83
2018-04-11T12:11:58.524Z,24.57
2018-04-11T12:14:24.444Z,25.03
2018-04-11T12:16:50.333Z,24.67
2018-04-11T12:19:16.203Z,24.03
2018-04-11T12:21:42.211Z,24.17
2018-04-11T12:24:08.082Z,27.13
2018-04-11T12:26:33.960Z,24.03
2018-04-11T12:28:59.884Z,26.13
2018-04-11T12:31:25.798Z,27.37
2018-04-11T12:33:51.739Z,26.90
2018-04-11T12:36:17.650Z,27.77
2018-04-11T12:38:43.519Z,26.90
2018-04-11T12:41:09.392Z,28.47
2018-04-11T12:43:35.320Z,27.77
2018-04-11T12:46:01.271Z,29.70
2018-04-11T12:48:27.144Z,30.73
2018-04-11T12:50:53.060Z,30.67
2018-04-11T12:53:18.942Z,30.60
2018-04-11T12:55:44.822Z,31.83
2018-04-11T12:58:10.856Z,33.67
2018-04-11T13:00:36.735Z,34.73
2018-04-11T13:03:02.593Z,30.83
2018-04-11T13:05:28.540Z,33.23
2018-04-11T13:07:54.409Z,32.03
2018-04-11T13:10:20.367Z,31.87
2018-04-11T13:12:46.288Z,32.40
2018-04-11T13:15:12.152Z,31.20
2018-04-11T13:17:38.029Z,33.13
2018-04-11T13:20:03.935Z,31.73
2018-04-11T13:22:29.887Z,29.87
2018-04-11T13:24:55.786Z,30.90
2018-04-11T13:27:21.703Z,34.37
2018-04-11T13:29:47.580Z,34.83
2018-04-11T13:32:13.447Z,33.10
2018-04-11T13:34:39.567Z,34.83
2018-04-11T13:37:05.448Z,33.97
2018-04-11T13:39:31.316Z,33.10
2018-04-11T13:41:57.238Z,33.57
2018-04-11T13:44:23.115Z,33.40
2018-04-11T13:46:49.127Z,31.27
2018-04-11T13:49:15.044Z,29.77
2018-04-11T13:51:40.911Z,33.77
2018-04-11T13:54:06.779Z,32.57
2018-04-11T13:56:32.682Z,32.57
2018-04-11T13:58:58.638Z,31.97
2018-04-11T14:01:24.552Z,31.87
2018-04-11T14:03:50.459Z,31.27
2018-04-11T14:06:16.336Z,30.60
2018-04-11T14:08:42.212Z,31.77
2018-04-11T14:11:08.231Z,30.60
2018-04-11T14:13:34.133Z,34.07
2018-04-11T14:16:00.003Z,32.13
2018-04-11T14:18:25.924Z,31.63
2018-04-11T14:20:51.796Z,30.90
2018-04-11T14:23:17.871Z,31.73
2018-04-11T14:25:43.830Z,32.70
2018-04-11T14:28:09.729Z,31.50
2018-04-11T14:30:35.620Z,31.83
2018-04-11T14:33:01.626Z,30.77
2018-04-11T14:35:27.597Z,31.97
2018-04-11T14:37:53.486Z,30.40
2018-04-11T14:40:19.719Z,32.10
2018-04-11T14:42:45.645Z,33.53
2018-04-11T14:45:11.556Z,32.60
2018-04-11T14:47:37.564Z,30.07
2018-04-11T14:50:03.467Z,30.40
2018-04-11T14:52:29.363Z,29.17
2018-04-11T14:54:55.276Z,30.60
2018-04-11T14:57:21.151Z,33.00
2018-04-11T14:59:47.095Z,34.33
2018-04-11T15:02:13.004Z,34.23
2018-04-11T15:04:38.883Z,35.47
2018-04-11T15:07:05.024Z,35.70
2018-04-11T15:09:30.955Z,32.90
2018-04-11T15:11:56.935Z,34.07
2018-04-11T15:14:22.831Z,34.57
2018-04-11T15:16:48.972Z,32.77
2018-04-11T15:19:14.839Z,34.53
2018-04-11T15:21:40.770Z,36.63
2018-04-11T15:24:06.819Z,35.10
2018-04-11T15:26:32.699Z,33.83
2018-04-11T15:28:58.555Z,34.33
2018-04-11T15:31:24.760Z,33.60
2018-04-11T15:33:50.630Z,35.40
2018-04-11T15:36:16.588Z,34.03
2018-04-11T15:38:42.503Z,36.07
2018-04-11T15:41:08.384Z,34.67
2018-04-11T15:43:34.287Z,35.53
2018-04-11T15:46:00.223Z,36.07
2018-04-11T15:48:26.183Z,35.50
2018-04-11T15:50:52.058Z,35.93
2018-04-11T15:53:17.976Z,35.80
2018-04-11T15:55:43.848Z,35.73
2018-04-11T15:58:09.720Z,35.80
2018-04-11T16:00:35.756Z,34.20
2018-04-11T16:03:01.644Z,38.97
2018-04-11T16:05:27.524Z,32.53
2018-04-11T16:07:53.438Z,35.50
2018-04-11T16:10:19.308Z,33.23
2018-04-11T16:12:45.278Z,34.30
2018-04-11T16:15:11.187Z,34.50
2018-04-11T16:17:37.055Z,32.97
2018-04-11T16:20:02.970Z,40.30
2018-04-11T16:22:28.882Z,35.13
2018-04-11T16:24:54.847Z,33.43
2018-04-11T16:27:20.725Z,35.43
2018-04-11T16:29:46.675Z,33.20
2018-04-11T16:32:12.631Z,35.00
2018-04-11T16:34:38.609Z,33.83
2018-04-11T16:37:04.602Z,35.07
2018-04-11T16:39:30.472Z,36.03
2018-04-11T16:41:56.362Z,32.77
2018-04-11T16:44:22.273Z,33.17
2018-04-11T16:46:48.187Z,33.90
2018-04-11T16:49:14.111Z,33.67
2018-04-11T16:51:40.031Z,37.00
2018-04-11T16:54:05.900Z,32.70
2018-04-11T16:56:31.769Z,32.27
2018-04-11T16:58:57.679Z,29.53
2018-04-11T17:01:23.670Z,30.47
2018-04-11T17:03:49.568Z,32.90
2018-04-11T17:06:15.487Z,30.10
2018-04-11T17:08:41.371Z,29.70
2018-04-11T17:11:07.254Z,30.93
2018-04-11T17:13:33.241Z,30.87
2018-04-11T17:15:59.120Z,32.47
2018-04-11T17:18:25.011Z,33.97
2018-04-11T17:21:03.139Z,31.57
2018-04-11T17:23:41.355Z,30.90
2018-04-11T17:26:19.676Z,33.30
2018-04-11T17:28:57.752Z,33.30
2018-04-11T17:31:23.695Z,33.93
2018-04-11T17:33:49.668Z,34.60
2018-04-11T17:36:15.650Z,34.93
2018-04-11T17:38:41.603Z,32.57
2018-04-11T17:41:07.468Z,35.00
2018-04-11T17:43:33.336Z,35.10
2018-04-11T17:45:59.340Z,36.50
2018-04-11T17:48:25.208Z,36.53
2018-04-11T17:50:51.148Z,39.90
2018-04-11T17:53:17.075Z,37.33
2018-04-11T17:55:43.020Z,37.33
2018-04-11T17:58:09.003Z,36.27
2018-04-11T18:00:34.947Z,43.37
2018-04-11T18:03:00.915Z,37.20
2018-04-11T18:05:26.795Z,37.77
2018-04-11T18:07:52.813Z,38.87
2018-04-11T18:10:18.733Z,37.23
2018-04-11T18:12:44.615Z,39.70
2018-04-11T18:15:10.667Z,39.03
2018-04-11T18:17:36.532Z,35.63
2018-04-11T18:20:02.450Z,37.67
2018-04-11T18:22:28.399Z,39.23
2018-04-11T18:24:54.331Z,39.13
2018-04-11T18:27:20.224Z,39.93
2018-04-11T18:29:46.155Z,41.37
2018-04-11T18:32:12.078Z,38.50
2018-04-11T18:34:37.941Z,35.93
2018-04-11T18:37:03.867Z,41.13
2018-04-11T18:39:29.817Z,37.07
2018-04-11T18:41:55.676Z,40.50
2018-04-11T18:44:21.584Z,42.47
2018-04-11T18:46:47.460Z,38.47
2018-04-11T18:49:13.333Z,38.33
2018-04-11T18:51:39.234Z,42.10
2018-04-11T18:54:05.128Z,41.63
2018-04-11T18:56:31.083Z,43.57
2018-04-11T18:58:57.043Z,44.50
2018-04-11T19:01:23.242Z,43.37
2018-04-11T19:03:49.112Z,47.00
2018-04-11T19:06:15.025Z,42.63
2018-04-11T19:08:41.226Z,41.97
2018-04-11T19:11:07.204Z,44.40
2018-04-11T19:13:33.132Z,42.47
2018-04-11T19:15:59.227Z,45.23
2018-04-11T19:18:25.107Z,44.90
2018-04-11T19:20:51.042Z,43.10
2018-04-11T19:23:17.206Z,45.60
2018-04-11T19:25:43.887Z,48.87
2018-04-11T19:28:09.796Z,45.90
2018-04-11T19:30:35.682Z,41.70
2018-04-11T19:33:01.552Z,44.60
2018-04-11T19:35:27.472Z,46.13
2018-04-11T19:37:53.679Z,50.77
2018-04-11T19:40:19.584Z,46.13
2018-04-11T19:42:45.479Z,48.07
2018-04-11T19:45:11.360Z,48.50
2018-04-11T19:47:37.635Z,48.77
2018-04-11T19:50:03.589Z,51.40
2018-04-11T19:52:29.485Z,51.07
2018-04-11T19:54:55.351Z,50.27
2018-04-11T19:57:21.260Z,51.87
2018-04-11T19:59:47.153Z,50.33
2018-04-11T20:02:13.015Z,53.30
2018-04-11T20:04:38.955Z,51.63
2018-04-11T20:07:04.840Z,52.53
2018-04-11T20:09:30.721Z,47.73
2018-04-11T20:11:56.733Z,51.20
2018-04-11T20:14:22.624Z,51.17
2018-04-11T20:16:48.507Z,52.10
2018-04-11T20:19:14.471Z,55.67
2018-04-11T20:21:40.332Z,51.13
2018-04-11T20:24:07.175Z,52.03
2018-04-11T20:26:33.087Z,51.67
2018-04-11T20:28:58.968Z,53.53
2018-04-11T20:31:24.831Z,54.57
2018-04-11T20:33:50.767Z,54.13
2018-04-11T20:36:16.724Z,51.50
2018-04-11T20:38:42.587Z,53.73
2018-04-11T20:41:08.506Z,53.23
2018-04-11T20:43:34.367Z,52.97
2018-04-11T20:46:00.246Z,49.57
2018-04-11T20:48:26.596Z,49.23
2018-04-11T20:50:52.462Z,53.00
2018-04-11T20:53:18.315Z,49.23
2018-04-11T20:55:44.226Z,51.13
2018-04-11T20:58:10.113Z,46.23
2018-04-11T21:00:36.069Z,51.50
2018-04-11T21:03:02.020Z,50.97
2018-04-11T21:05:27.885Z,47.20
2018-04-11T21:07:53.751Z,48.63
2018-04-11T21:10:19.669Z,47.47
2018-04-11T21:12:46.423Z,49.97
2018-04-11T21:15:12.279Z,48.70
2018-04-11T21:17:38.183Z,48.63
2018-04-11T21:20:04.060Z,48.37
2018-04-11T21:22:29.924Z,47.30
2018-04-11T21:24:55.916Z,46.33
2018-04-11T21:27:21.789Z,48.07
2018-04-11T21:29:47.745Z,47.60
2018-04-11T21:32:13.656Z,47.07
2018-04-11T21:34:39.512Z,46.53
2018-04-11T21:37:05.481Z,45.13
2018-04-11T21:39:31.392Z,46.50
2018-04-11T21:41:57.264Z,46.63
2018-04-11T21:44:23.167Z,47.63
2018-04-11T21:46:49.084Z,43.53
2018-04-11T21:49:15.023Z,51.00
2018-04-11T21:51:40.903Z,49.07
2018-04-11T21:54:07.200Z,45.03
2018-04-11T21:56:33.068Z,43.97
2018-04-11T21:58:58.958Z,46.33
2018-04-11T22:01:24.950Z,47.97
2018-04-11T22:03:50.907Z,46.83
2018-04-11T22:06:16.767Z,46.67
2018-04-11T22:08:42.663Z,46.00
2018-04-11T22:11:08.540Z,45.37
2018-04-11T22:13:34.490Z,44.90
2018-04-11T22:16:00.403Z,44.10
2018-04-11T22:18:26.262Z,46.47
2018-04-11T22:20:52.136Z,45.77
2018-04-11T22:23:18.049Z,49.57
2018-04-11T22:25:44.096Z,44.33
2018-04-11T22:28:10.077Z,44.33
2018-04-11T22:30:36.019Z,48.17
2018-04-11T22:33:01.867Z,45.63
2018-04-11T22:35:27.749Z,43.47
2018-04-11T22:37:53.751Z,45.27
2018-04-11T22:40:19.624Z,46.30
2018-04-11T22:42:45.492Z,44.73
2018-04-11T22:45:11.441Z,44.47
2018-04-11T22:47:37.316Z,40.53
2018-04-11T22:50:03.287Z,44.03
2018-04-11T22:52:29.189Z,42.33
2018-04-11T22:54:55.075Z,45.27
2018-04-11T22:57:20.936Z,45.70
2018-04-11T22:59:46.856Z,44.67
2018-04-11T23:02:12.838Z,40.90
2018-04-11T23:04:38.717Z,43.20
2018-04-11T23:07:04.647Z,46.03
2018-04-11T23:09:30.523Z,44.83
2018-04-11T23:11:56.385Z,45.20
2018-04-11T23:14:22.388Z,38.50
2018-04-11T23:16:48.271Z,45.20
2018-04-11T23:19:14.224Z,44.33
2018-04-11T23:21:40.136Z,38.10
2018-04-11T23:24:06.016Z,46.23
2018-04-11T23:26:31.971Z,41.13
2018-04-11T23:28:57.879Z,43.77
2018-04-11T23:31:23.751Z,44.73
2018-04-11T23:33:49.625Z,43.20
2018-04-11T23:36:15.516Z,42.67
2018-04-11T23:38:41.472Z,41.33
2018-04-11T23:41:07.336Z,43.60
2018-04-11T23:43:33.254Z,40.93
2018-04-11T23:45:59.136Z,47.27
2018-04-11T23:48:24.996Z,42.20
2018-04-11T23:50:50.984Z,41.30
2018-04-11T23:53:16.835Z,42.87
2018-04-11T23:55:42.686Z,44.20
2018-04-11T23:58:08.587Z,41.67
